Time;durP1;ratioP1;P1;durP2;ratioP2;P2;SDS_P1;SDS_P2;PMS_P1;PMS_P2;Temp;Humidity;BMP_temperature;BMP_pressure;BME280_temperature;BME280_humidity;BME280_pressure;Samples;Min_cycle;Max_cycle;Signal;HPM_P1;HPM_P2
2023/11/07 06:12:49;;;;;;;;;;;;;;;6.62;100.00;99925.12;1844019;76;20167;-69
2023/11/07 06:43:03;;;;;;;;;;;;;;;7.68;100.00;99953.25;1765906;80;20155;-73
2023/11/07 06:45:30;;;;;;;;;;;;;;;7.75;100.00;99957.70;1776393;80;20417;-66
2023/11/07 06:47:56;;;;;;;;;;;;;;;7.83;100.00;99951.72;1771603;80;20432;-69
2023/11/07 07:07:54;;;;;;;;;;;;;;;8.66;100.00;99978.86;1760678;78;20285;-73
2023/11/07 07:10:23;;;;;;;;;;;;;;;8.85;100.00;99974.88;1767976;78;20204;-67
2023/11/07 07:12:51;;;;;;;;;;;;;;;9.09;100.00;99986.25;1771333;79;20169;-80
2023/11/07 07:15:23;;;;;;;;;;;;;;;9.34;100.00;99987.97;1776410;79;20806;-75
2023/11/07 07:55:27;;;;;;;;;;;;;;;11.83;100.00;100015.91;1751758;81;20438;-73
2023/11/07 07:57:59;;;;;;;;;;;;;;;11.88;100.00;100020.37;1742734;82;20135;-75
2023/11/07 08:15:25;;;;;;;;;;;;;;;12.49;100.00;100036.55;1758515;81;20149;-79
2023/11/07 08:17:51;;;;;;;;;;;;;;;12.49;100.00;100037.86;1743697;80;20528;-66
2023/11/07 08:20:22;;;;;;;;;;;;;;;12.47;100.00;100053.63;1773061;80;20142;-69
2023/11/07 08:22:51;;;;;;;;;;;;;;;12.47;100.00;100051.48;1738703;80;20542;-74
2023/11/07 08:57:51;;;;;;;;;;;;;;;12.36;100.00;100082.22;1753464;81;20320;-72
2023/11/07 09:00:26;;;;;;;;;;;;;;;12.31;100.00;100079.89;1749650;81;20388;-71
2023/11/07 09:12:51;;;;;;;;;;;;;;;12.10;100.00;100083.81;1773923;80;20163;-83
2023/11/07 09:15:19;;;;;;;;;;;;;;;12.07;100.00;100083.16;1765226;80;20128;-75
2023/11/07 09:17:46;;;;;;;;;;;;;;;12.05;100.00;100081.11;1773574;80;20157;-67
2023/11/07 10:10:42;;;;;;;;;;;;;;;12.12;100.00;100100.69;1760281;80;20100;-78
2023/11/07 10:13:10;;;;;;;;;;;;;;;12.16;100.00;100099.10;1753815;80;20125;-71
2023/11/07 10:15:37;;;;;;;;;;;;;;;12.19;100.00;100105.91;1749940;81;20159;-73
2023/11/07 10:18:10;;;;;;;;;;;;;;;12.21;100.00;100100.97;1726312;82;20175;-74
2023/11/07 10:20:49;;;;;;;;;;;;;;;12.23;100.00;100096.95;1756016;81;20136;-78
2023/11/07 10:23:19;;;;;;;;;;;;;;;12.24;100.00;100103.86;1760691;80;20105;-72
2023/11/07 10:30:57;;;;;;;;;;;;;;;12.29;100.00;100104.41;1741359;81;20131;-72
2023/11/07 10:33:32;;;;;;;;;;;;;;;12.31;100.00;100109.91;1740572;81;20182;-77
2023/11/07 10:35:59;;;;;;;;;;;;;;;12.34;100.00;100104.97;1749837;81;20451;-76
2023/11/07 10:38:26;;;;;;;;;;;;;;;12.35;100.00;100105.34;1745412;81;20131;-73
2023/11/07 10:48:43;;;;;;;;;;;;;;;12.46;100.00;100105.95;1751688;81;20182;-70
2023/11/07 10:51:13;;;;;;;;;;;;;;;12.50;100.00;100112.66;1753973;81;20144;-73
2023/11/07 10:53:47;;;;;;;;;;;;;;;12.52;100.00;100114.72;1710544;81;20138;-70
2023/11/07 10:56:22;;;;;;;;;;;;;;;12.55;100.00;100118.44;1751456;81;20089;-77
2023/11/07 10:59:00;;;;;;;;;;;;;;;12.56;100.00;100109.67;1765995;81;20128;-75
2023/11/07 11:01:32;;;;;;;;;;;;;;;12.57;100.00;100114.80;1763510;81;20493;-75
2023/11/07 11:04:00;;;;;;;;;;;;;;;12.58;100.00;100107.34;1747114;81;20136;-66
2023/11/07 11:06:27;;;;;;;;;;;;;;;12.59;100.00;100116.84;1750841;81;20131;-72
2023/11/07 11:09:08;;;;;;;;;;;;;;;12.61;100.00;100117.59;1753078;81;20092;-68
2023/11/07 11:11:53;;;;;;;;;;;;;;;12.62;100.00;100118.43;1755700;81;20088;-66
2023/11/07 11:14:20;;;;;;;;;;;;;;;12.60;100.00;100114.61;1774108;80;20120;-76
2023/11/07 11:16:48;;;;;;;;;;;;;;;12.60;100.00;100121.61;1768236;80;20325;-74
2023/11/07 11:19:33;;;;;;;;;;;;;;;12.61;100.00;100114.98;1753920;81;20138;-74
2023/11/07 11:22:21;;;;;;;;;;;;;;;12.63;100.00;100113.11;1746829;80;20134;-68
2023/11/07 11:25:17;;;;;;;;;;;;;;;12.64;100.00;100116.56;1727650;82;20115;-67
2023/11/07 11:40:59;;;;;;;;;;;;;;;12.64;100.00;100136.16;1756827;81;20108;-79
2023/11/07 11:43:33;;;;;;;;;;;;;;;12.60;100.00;100132.05;1757760;81;20107;-81
2023/11/07 11:46:15;;;;;;;;;;;;;;;12.56;100.00;100139.25;1761281;81;20108;-81
2023/11/07 11:48:49;;;;;;;;;;;;;;;12.54;100.00;100135.89;1719909;82;20414;-82
2023/11/07 11:51:32;;;;;;;;;;;;;;;12.53;100.00;100134.21;1731482;82;20127;-82
2023/11/07 11:59:11;;;;;;;;;;;;;;;12.55;100.00;100142.79;1741908;81;20108;-65
2023/11/07 12:02:00;;;;;;;;;;;;;;;12.55;100.00;100138.87;1752928;81;20194;-72
2023/11/07 12:04:38;;;;;;;;;;;;;;;12.55;100.00;100140.17;1755389;81;20132;-67
2023/11/07 12:07:14;;;;;;;;;;;;;;;12.55;100.00;100140.17;1769886;80;20114;-71
2023/11/07 12:09:44;;;;;;;;;;;;;;;12.56;100.00;100144.47;1779137;80;20105;-79
2023/11/07 12:12:15;;;;;;;;;;;;;;;12.56;100.00;100144.47;1771261;80;20164;-71
2023/11/07 12:43:23;;;;;;;;;;;;;;;12.47;100.00;100156.78;1739634;81;20212;-71
2023/11/07 14:07:35;;;;;;;;;;;;;;;11.26;100.00;100160.98;1773974;81;20394;-78
2023/11/07 14:10:07;;;;;;;;;;;;;;;11.17;100.00;100158.45;1780650;81;20095;-73
2023/11/07 14:12:30;;;;;;;;;;;;;;;11.12;100.00;100161.78;1736749;80;20092;-81
2023/11/07 14:27:48;;;;;;;;;;;;;;;10.79;100.00;100160.59;1749297;81;20099;-72
2023/11/07 14:30:18;;;;;;;;;;;;;;;10.74;100.00;100160.00;1763451;79;20404;-69
2023/11/07 14:47:53;;;;;;;;;;;;;;;10.46;100.00;100163.70;1758820;81;20098;-75
2023/11/07 14:50:24;;;;;;;;;;;;;;;10.43;100.00;100164.70;1752870;81;20148;-65
